Time;durP1;ratioP1;P1;durP2;ratioP2;P2;SDS_P1;SDS_P2;PMS_P1;PMS_P2;Temp;Humidity;BMP_temperature;BMP_pressure;BME280_temperature;BME280_humidity;BME280_pressure;Samples;Min_cycle;Max_cycle;Signal;HPM_P1;HPM_P2
2024/01/09 00:01:28;;;;;;;15.18;6.75;;;;;;;-2.16;94.81;93832.66;5086303;28;20092;-83
2024/01/09 00:03:53;;;;;;;13.38;7.10;;;;;;;-2.09;94.70;93833.31;5086273;28;20046;-87
2024/01/09 00:06:19;;;;;;;9.43;6.03;;;;;;;-2.06;95.08;93834.66;5086227;28;20027;-87
2024/01/09 00:08:45;;;;;;;14.63;6.63;;;;;;;-2.08;94.72;93828.88;5086301;28;20101;-88
2024/01/09 00:11:15;;;;;;;11.82;6.20;;;;;;;-2.17;94.68;93833.72;5085750;28;20251;-88
2024/01/09 00:13:41;;;;;;;9.82;5.80;;;;;;;-2.11;94.86;93834.59;5086512;28;20027;-88
2024/01/09 00:16:07;;;;;;;12.65;7.32;;;;;;;-2.07;94.71;93846.16;5086002;28;20017;-85
2024/01/09 00:18:32;;;;;;;12.38;6.80;;;;;;;-2.04;95.06;93848.28;5085696;28;20095;-85
2024/01/09 00:20:58;;;;;;;10.43;6.47;;;;;;;-2.08;94.87;93840.13;5085660;28;20066;-85
2024/01/09 00:23:23;;;;;;;11.45;6.65;;;;;;;-2.12;94.83;93840.81;5085566;28;20036;-84
2024/01/09 00:25:48;;;;;;;10.65;6.03;;;;;;;-2.07;95.00;93848.78;5084539;28;20056;-85
2024/01/09 00:28:14;;;;;;;14.85;6.85;;;;;;;-2.01;95.00;93847.81;5085545;28;20319;-85
2024/01/09 00:30:40;;;;;;;12.25;6.80;;;;;;;-1.98;94.98;93841.34;5085801;28;20021;-84
2024/01/09 00:33:05;;;;;;;16.35;7.40;;;;;;;-1.95;94.85;93854.72;5085648;28;20201;-85
2024/01/09 00:35:31;;;;;;;15.35;7.50;;;;;;;-1.89;94.51;93853.78;5085408;28;20027;-86
2024/01/09 00:37:56;;;;;;;14.52;7.78;;;;;;;-1.82;94.35;93856.25;5085362;28;20025;-86
2024/01/09 00:40:22;;;;;;;11.05;6.90;;;;;;;-1.81;94.18;93865.69;5085417;28;20092;-85
2024/01/09 00:42:47;;;;;;;13.75;7.82;;;;;;;-1.77;94.20;93858.13;5085544;28;20017;-85
2024/01/09 00:45:16;;;;;;;12.30;7.07;;;;;;;-1.77;93.59;93858.13;5085634;28;20062;-88
2024/01/09 00:47:41;;;;;;;15.63;7.53;;;;;;;-1.74;93.22;93868.13;5085660;28;20024;-88
2024/01/09 00:50:07;;;;;;;17.02;7.80;;;;;;;-1.69;93.06;93860.34;5085914;28;20384;-88
2024/01/09 00:52:32;;;;;;;19.10;7.18;;;;;;;-1.63;93.11;93868.06;5085570;28;20092;-88
2024/01/09 00:54:57;;;;;;;10.82;6.28;;;;;;;-1.76;91.86;93878.03;5084766;28;20033;-87
2024/01/09 00:57:23;;;;;;;12.10;6.80;;;;;;;-1.72;91.77;93879.13;5085549;28;20066;-88
2024/01/09 00:59:49;;;;;;;10.35;6.50;;;;;;;-1.77;91.16;93876.44;5084100;28;20349;-87
2024/01/09 01:02:14;;;;;;;11.27;6.25;;;;;;;-1.80;91.04;93874.31;5085047;28;20023;-88
2024/01/09 01:04:39;;;;;;;12.18;7.10;;;;;;;-1.78;91.28;93869.63;5085406;28;20020;-87
2024/01/09 01:07:05;;;;;;;10.95;5.55;;;;;;;-1.88;91.30;93873.63;5085479;28;20021;-87
2024/01/09 01:09:30;;;;;;;11.02;5.95;;;;;;;-1.96;91.19;93875.84;5084944;28;20028;-87
2024/01/09 01:11:56;;;;;;;13.38;6.80;;;;;;;-1.98;91.23;93880.50;5084920;28;20043;-87
2024/01/09 01:14:23;;;;;;;13.05;6.82;;;;;;;-1.99;91.50;93874.50;5084870;28;20073;-87
2024/01/09 01:16:49;;;;;;;14.95;6.50;;;;;;;-1.91;91.64;93879.34;5084994;28;20073;-87
2024/01/09 01:19:14;;;;;;;13.73;6.05;;;;;;;-1.87;91.54;93877.06;5084963;28;20013;-87
2024/01/09 01:21:40;;;;;;;14.10;6.88;;;;;;;-1.77;91.33;93881.66;5085154;28;20275;-87
2024/01/09 01:24:05;;;;;;;14.05;7.47;;;;;;;-1.72;91.47;93873.91;5085069;28;20311;-87
2024/01/09 01:26:31;;;;;;;14.68;7.43;;;;;;;-1.70;91.63;93888.31;5084648;28;20024;-84
2024/01/09 01:28:56;;;;;;;15.73;6.97;;;;;;;-1.64;91.44;93882.16;5084459;28;20119;-85
2024/01/09 01:31:21;;;;;;;11.38;6.47;;;;;;;-1.62;91.22;93889.75;5084383;28;20069;-84
2024/01/09 01:33:47;;;;;;;16.50;7.20;;;;;;;-1.65;90.84;93885.00;5084212;28;20380;-82
2024/01/09 01:36:16;;;;;;;13.10;7.00;;;;;;;-1.63;90.94;93888.97;5084126;28;20016;-83
2024/01/09 01:38:43;;;;;;;13.98;7.15;;;;;;;-1.59;91.24;93883.25;5084147;28;20065;-83
2024/01/09 01:41:08;;;;;;;15.55;7.32;;;;;;;-1.55;90.95;93885.16;5084535;28;20070;-86
2024/01/09 01:43:34;;;;;;;13.68;7.55;;;;;;;-1.52;90.17;93887.31;5089028;28;20032;-88
2024/01/09 01:46:00;;;;;;;14.13;6.18;;;;;;;-1.53;89.77;93887.53;5096064;28;20020;-88
2024/01/09 01:48:25;;;;;;;14.48;6.82;;;;;;;-1.56;89.88;93880.97;5093747;28;20339;-86
2024/01/09 01:50:51;;;;;;;15.02;7.00;;;;;;;-1.58;89.95;93893.50;5084114;28;20315;-85
2024/01/09 01:53:17;;;;;;;14.02;7.78;;;;;;;-1.64;90.21;93897.84;5083887;28;20291;-83
2024/01/09 01:55:43;;;;;;;11.77;6.72;;;;;;;-1.61;90.15;93893.94;5083823;28;20028;-83
2024/01/09 01:58:09;;;;;;;12.75;6.68;;;;;;;-1.60;89.99;93894.75;5084007;28;20032;-83
2024/01/09 02:00:36;;;;;;;14.38;7.38;;;;;;;-1.60;90.33;93892.94;5084047;28;20023;-86
2024/01/09 02:03:01;;;;;;;13.38;7.68;;;;;;;-1.54;89.99;93899.81;5084005;28;20017;-86
2024/01/09 02:05:28;;;;;;;16.08;8.25;;;;;;;-1.46;89.67;93896.81;5083825;28;20028;-86
2024/01/09 02:07:54;;;;;;;14.90;7.20;;;;;;;-1.51;89.19;93907.19;5083463;28;20055;-86
2024/01/09 02:10:20;;;;;;;12.30;7.13;;;;;;;-1.58;88.26;93906.56;5083669;28;20024;-86
2024/01/09 02:12:46;;;;;;;11.38;6.05;;;;;;;-1.85;89.30;93891.47;5083441;28;20047;-86
2024/01/09 02:15:12;;;;;;;12.68;6.57;;;;;;;-1.82;89.56;93901.44;5084108;28;20020;-86
2024/01/09 02:17:38;;;;;;;11.55;6.95;;;;;;;-1.78;89.87;93901.00;5084014;28;20017;-86
2024/01/09 02:20:08;;;;;;;12.52;6.93;;;;;;;-1.73;90.37;93906.28;5083857;28;20246;-86
2024/01/09 02:22:34;;;;;;;11.30;6.35;;;;;;;-1.74;89.82;93907.31;5083255;28;20023;-86
2024/01/09 02:24:59;;;;;;;12.32;6.72;;;;;;;-1.78;90.08;93901.78;5084304;28;20028;-86
2024/01/09 02:27:37;;;;;;;11.63;6.47;;;;;;;-1.80;89.95;93903.81;5082482;28;20031;-86
2024/01/09 02:30:03;;;;;;;13.98;6.10;;;;;;;-1.77;89.82;93902.56;5082886;28;20047;-88
2024/01/09 02:32:29;;;;;;;14.50;7.28;;;;;;;-1.75;90.37;93898.69;5083862;28;20028;-87
2024/01/09 02:34:56;;;;;;;14.00;6.85;;;;;;;-1.69;90.45;93910.00;5083306;28;20024;-83
2024/01/09 02:37:21;;;;;;;14.70;7.22;;;;;;;-1.68;90.53;93911.63;5083108;28;20020;-84
2024/01/09 02:39:46;;;;;;;17.85;7.13;;;;;;;-1.62;90.06;93915.91;5083367;28;20027;-84
2024/01/09 02:42:13;;;;;;;12.43;6.82;;;;;;;-1.57;89.92;93905.50;5082920;28;20027;-85
2024/01/09 02:44:38;;;;;;;11.88;5.97;;;;;;;-1.53;89.31;93909.25;5083152;28;20026;-84
2024/01/09 02:47:03;;;;;;;11.88;6.93;;;;;;;-1.58;89.63;93911.78;5081917;28;20088;-84
2024/01/09 02:49:29;;;;;;;13.60;6.22;;;;;;;-1.50;89.75;93908.78;5083129;28;20028;-85
2024/01/09 02:51:54;;;;;;;12.80;5.97;;;;;;;-1.50;89.36;93908.00;5083972;28;20032;-85
2024/01/09 02:54:20;;;;;;;17.88;7.05;;;;;;;-1.53;89.66;93904.00;5083719;28;20028;-85
2024/01/09 02:56:45;;;;;;;18.58;6.22;;;;;;;-1.46;89.68;93909.91;5083723;28;20204;-85
2024/01/09 02:59:10;;;;;;;10.95;5.70;;;;;;;-1.45;89.74;93906.25;5082768;28;20027;-84
2024/01/09 03:01:36;;;;;;;12.13;5.05;;;;;;;-1.39;89.31;93906.34;5083402;28;20187;-84
2024/01/09 03:04:01;;;;;;;7.88;4.88;;;;;;;-1.35;89.39;93908.22;5082339;28;20016;-84
2024/01/09 03:06:27;;;;;;;7.13;4.53;;;;;;;-1.31;89.33;93903.31;5083641;28;20059;-83
2024/01/09 03:08:52;;;;;;;6.70;3.83;;;;;;;-1.28;89.03;93908.88;5083310;28;20056;-84
2024/01/09 03:11:18;;;;;;;8.90;3.30;;;;;;;-1.22;88.64;93913.16;5082869;28;20048;-85
2024/01/09 03:13:43;;;;;;;8.75;3.75;;;;;;;-1.15;88.41;93920.06;5083253;28;20031;-90
2024/01/09 03:16:13;;;;;;;7.18;4.28;;;;;;;-1.07;88.48;93917.81;5085551;28;20027;-90
2024/01/09 03:18:42;;;;;;;6.13;3.28;;;;;;;-1.01;87.90;93910.84;5083677;28;20027;-86
2024/01/09 03:21:09;;;;;;;9.07;4.10;;;;;;;-0.96;87.72;93916.13;5082530;28;20283;-87
2024/01/09 03:23:35;;;;;;;6.85;3.35;;;;;;;-0.91;86.79;93915.44;5082199;28;20020;-88
2024/01/09 03:26:00;;;;;;;7.22;3.60;;;;;;;-0.89;86.67;93921.22;5082660;28;20028;-87
2024/01/09 03:28:26;;;;;;;8.52;4.03;;;;;;;-0.90;86.68;93917.00;5082259;28;20024;-87
2024/01/09 03:30:51;;;;;;;6.55;3.60;;;;;;;-0.90;86.21;93924.84;5082522;28;20021;-89
2024/01/09 03:33:17;;;;;;;9.65;4.35;;;;;;;-0.97;86.24;93926.88;5085598;28;20044;-89
2024/01/09 03:35:42;;;;;;;5.93;3.15;;;;;;;-1.05;86.36;93915.75;5086249;28;20314;-84
2024/01/09 03:38:08;;;;;;;4.97;2.88;;;;;;;-1.13;86.79;93923.22;5086121;28;20059;-83
2024/01/09 03:40:35;;;;;;;7.88;3.47;;;;;;;-1.20;87.39;93931.22;5085873;28;20295;-85
2024/01/09 03:43:00;;;;;;;9.30;4.28;;;;;;;-1.21;87.24;93932.25;5085749;28;20044;-85
2024/01/09 03:45:26;;;;;;;9.25;4.18;;;;;;;-1.25;87.89;93929.31;5085674;28;20020;-83
2024/01/09 03:47:51;;;;;;;6.93;4.22;;;;;;;-1.29;87.78;93935.25;5085862;28;20020;-84
2024/01/09 03:50:17;;;;;;;6.18;3.67;;;;;;;-1.33;88.06;93940.16;5085677;28;20037;-85
2024/01/09 03:52:42;;;;;;;10.63;4.20;;;;;;;-1.36;87.99;93939.84;5085655;28;20351;-84
2024/01/09 03:55:08;;;;;;;6.93;3.35;;;;;;;-1.35;88.35;93947.44;5085712;28;20051;-84
2024/01/09 03:57:33;;;;;;;7.45;3.85;;;;;;;-1.37;88.05;93946.91;5085226;28;20029;-83
2024/01/09 03:59:59;;;;;;;10.05;4.50;;;;;;;-1.37;87.77;93953.94;5085578;28;20040;-84
2024/01/09 04:02:24;;;;;;;7.50;3.97;;;;;;;-1.35;87.79;93959.75;5085439;28;20021;-84
2024/01/09 04:04:49;;;;;;;6.65;3.90;;;;;;;-1.33;87.84;93960.28;5085313;28;20090;-84
2024/01/09 04:07:15;;;;;;;7.63;4.47;;;;;;;-1.32;87.82;93961.88;5084930;28;20025;-84
2024/01/09 04:09:40;;;;;;;10.95;4.22;;;;;;;-1.28;87.88;93976.88;5085431;28;20047;-84
2024/01/09 04:12:06;;;;;;;9.07;4.13;;;;;;;-1.25;88.21;93972.97;5046409;28;1130696;-80
2024/01/09 04:14:31;;;;;;;11.13;4.97;;;;;;;-1.27;87.93;93980.28;5086425;28;20050;-82
2024/01/09 04:16:57;;;;;;;6.70;4.03;;;;;;;-1.50;87.45;93979.38;5086307;28;20016;-81
2024/01/09 04:19:22;;;;;;;10.75;4.70;;;;;;;-1.43;87.85;93984.44;5086284;28;20051;-82
2024/01/09 04:21:48;;;;;;;7.72;4.53;;;;;;;-1.32;87.94;93983.59;5085867;28;20188;-82
2024/01/09 04:24:13;;;;;;;7.63;4.53;;;;;;;-1.26;87.63;93992.34;5085685;28;20020;-81
2024/01/09 04:26:39;;;;;;;11.82;3.83;;;;;;;-1.24;87.83;93987.66;5085727;28;20020;-81
2024/01/09 04:29:04;;;;;;;9.45;4.55;;;;;;;-1.18;87.94;93986.72;5085672;28;20222;-81
2024/01/09 04:31:30;;;;;;;6.95;4.55;;;;;;;-1.13;87.86;93989.41;5085558;28;20379;-81
2024/01/09 04:33:55;;;;;;;6.78;3.72;;;;;;;-1.12;87.49;93995.41;5085503;28;20023;-84
2024/01/09 04:36:21;;;;;;;7.18;4.15;;;;;;;-1.19;86.05;93992.19;5085553;28;20066;-84
2024/01/09 04:38:47;;;;;;;9.82;3.88;;;;;;;-1.25;85.33;93999.13;5085492;28;20036;-83
2024/01/09 04:41:18;;;;;;;8.60;4.78;;;;;;;-1.29;85.34;94003.25;5085576;28;20215;-83
2024/01/09 04:43:47;;;;;;;9.73;4.68;;;;;;;-1.25;86.32;94015.63;5084533;28;20017;-83
2024/01/09 04:46:13;;;;;;;7.95;3.70;;;;;;;-1.19;86.17;94013.88;5084159;28;20032;-82
2024/01/09 04:48:38;;;;;;;8.18;4.25;;;;;;;-1.14;86.60;94011.38;5085461;28;20024;-83
2024/01/09 04:51:05;;;;;;;9.25;4.10;;;;;;;-1.05;86.81;94020.41;5085007;28;20020;-82
2024/01/09 04:53:30;;;;;;;8.00;4.35;;;;;;;-0.93;86.29;94025.56;5085060;28;20044;-83
2024/01/09 04:55:55;;;;;;;6.90;3.80;;;;;;;-0.94;84.66;94010.09;5084955;28;20028;-82
2024/01/09 04:58:21;;;;;;;11.10;4.03;;;;;;;-0.87;84.56;94031.69;5085263;28;20040;-89
2024/01/09 05:00:47;;;;;;;7.32;3.53;;;;;;;-0.86;84.63;94028.81;5085241;28;20083;-81
2024/01/09 05:03:13;;;;;;;5.85;3.45;;;;;;;-0.79;84.54;94027.84;5084961;28;20021;-84
2024/01/09 05:05:38;;;;;;;8.27;4.43;;;;;;;-0.74;84.40;94031.34;5085110;28;20299;-84
2024/01/09 05:08:04;;;;;;;10.75;3.70;;;;;;;-0.74;83.51;94020.88;5084821;28;20082;-84
2024/01/09 05:10:31;;;;;;;9.68;4.15;;;;;;;-0.65;83.04;94019.47;5084536;28;20025;-84
2024/01/09 05:12:57;;;;;;;7.78;2.83;;;;;;;-0.59;81.83;94011.69;5084821;28;20028;-85
2024/01/09 05:15:22;;;;;;;6.25;3.58;;;;;;;-0.56;81.06;94000.75;5084913;28;20056;-86
2024/01/09 05:17:47;;;;;;;6.65;3.50;;;;;;;-0.54;80.55;93999.47;5085088;28;20305;-86
2024/01/09 05:20:13;;;;;;;6.10;3.03;;;;;;;-0.54;79.90;93993.44;5085059;28;20020;-87
2024/01/09 05:22:38;;;;;;;8.05;2.92;;;;;;;-0.62;78.81;93998.03;5084592;28;20163;-83
2024/01/09 05:25:04;;;;;;;3.85;2.65;;;;;;;-0.77;78.51;94031.84;5084868;28;20069;-87
2024/01/09 05:27:30;;;;;;;6.25;3.03;;;;;;;-0.85;78.93;94024.38;5084875;28;20218;-86
2024/01/09 05:29:55;;;;;;;6.07;2.80;;;;;;;-0.98;78.91;94025.47;5091256;28;20021;-87
2024/01/09 05:32:21;;;;;;;4.18;2.80;;;;;;;-1.04;79.54;94018.56;5084355;28;20069;-85
2024/01/09 05:34:47;;;;;;;4.35;2.50;;;;;;;-1.23;79.82;94018.78;5084385;28;20301;-85
2024/01/09 05:37:12;;;;;;;4.63;2.40;;;;;;;-1.19;80.06;94029.56;5084363;28;20024;-85
2024/01/09 05:39:38;;;;;;;5.32;2.53;;;;;;;-1.13;80.80;94033.09;5084984;28;20072;-91
2024/01/09 05:42:04;;;;;;;5.65;2.15;;;;;;;-1.06;80.82;94031.91;5084196;28;20035;-91
2024/01/09 05:44:29;;;;;;;7.38;1.95;;;;;;;-0.98;79.74;94029.91;5084930;28;20112;-83
2024/01/09 05:46:55;;;;;;;8.50;2.22;;;;;;;-0.92;78.66;94034.22;5084105;28;20028;-81
2024/01/09 05:49:20;;;;;;;4.30;2.15;;;;;;;-0.84;78.05;94042.44;5084046;28;20062;-83
2024/01/09 05:51:45;;;;;;;3.78;2.03;;;;;;;-0.77;77.78;94063.25;5083766;28;20311;-83
2024/01/09 05:54:11;;;;;;;6.25;2.25;;;;;;;-0.72;78.07;94060.69;5083831;28;20086;-83
2024/01/09 05:56:37;;;;;;;4.38;2.40;;;;;;;-0.69;77.98;94060.25;5082917;28;20036;-82
2024/01/09 05:59:03;;;;;;;8.80;2.90;;;;;;;-0.66;77.70;94070.22;5084010;28;20149;-87
2024/01/09 06:01:28;;;;;;;6.70;2.80;;;;;;;-0.59;78.04;94075.31;5084049;28;20024;-88
2024/01/09 06:03:54;;;;;;;6.78;3.22;;;;;;;-0.53;78.19;94084.03;5084137;28;20024;-88
2024/01/09 06:06:19;;;;;;;6.30;2.92;;;;;;;-0.48;78.25;94091.97;5083984;28;20051;-87
2024/01/09 06:08:45;;;;;;;8.75;3.55;;;;;;;-0.41;78.31;94113.56;5083995;28;20050;-87
2024/01/09 06:11:11;;;;;;;8.88;3.92;;;;;;;-0.37;78.51;94117.28;5083635;28;20049;-86
2024/01/09 06:13:36;;;;;;;5.63;3.15;;;;;;;-0.32;78.53;94120.00;5084524;28;20036;-87
2024/01/09 06:16:02;;;;;;;7.70;3.50;;;;;;;-0.34;77.45;94129.13;5083793;28;20047;-87
2024/01/09 06:18:27;;;;;;;6.47;3.10;;;;;;;-0.29;76.84;94127.34;5084043;28;20069;-87
2024/01/09 06:20:53;;;;;;;10.98;2.60;;;;;;;-0.28;74.64;94149.13;5083690;28;20063;-88
2024/01/09 06:23:18;;;;;;;7.53;2.97;;;;;;;-0.34;75.45;94152.69;5083039;28;20032;-89
2024/01/09 06:25:44;;;;;;;9.35;4.13;;;;;;;-0.54;76.51;94163.63;5082584;28;20035;-87
2024/01/09 06:28:09;;;;;;;6.10;2.45;;;;;;;-0.42;76.73;94164.34;5083038;28;20031;-88
2024/01/09 06:30:34;;;;;;;4.72;2.33;;;;;;;-0.35;77.34;94169.44;5084154;28;20246;-88
2024/01/09 06:33:00;;;;;;;4.93;2.88;;;;;;;-0.31;77.18;94179.19;5082697;28;20020;-88
2024/01/09 06:35:26;;;;;;;8.25;3.05;;;;;;;-0.23;77.31;94186.66;5083805;28;20025;-88
2024/01/09 06:37:52;;;;;;;12.85;3.13;;;;;;;-0.21;77.07;94196.91;5083993;28;20069;-88
2024/01/09 06:40:19;;;;;;;10.05;2.85;;;;;;;-0.17;77.44;94202.47;5083816;28;20020;-88
2024/01/09 06:42:45;;;;;;;6.80;3.20;;;;;;;-0.11;77.82;94210.16;5082779;28;20020;-88
2024/01/09 06:45:12;;;;;;;7.82;3.42;;;;;;;-0.09;77.92;94226.44;5083918;28;20024;-91
2024/01/09 06:47:37;;;;;;;8.90;3.97;;;;;;;-0.01;77.42;94233.13;5083437;28;20024;-87
2024/01/09 06:50:03;;;;;;;8.18;4.25;;;;;;;-0.01;76.35;94220.81;5082019;28;20028;-86
2024/01/09 06:52:30;;;;;;;8.43;3.42;;;;;;;-0.01;75.49;94230.50;5081865;28;20345;-85
2024/01/09 06:54:55;;;;;;;7.70;3.45;;;;;;;-0.11;75.01;94235.59;5083078;28;20172;-86
2024/01/09 06:57:21;;;;;;;8.13;3.05;;;;;;;-0.18;74.59;94245.41;5082222;28;20048;-86
2024/01/09 06:59:47;;;;;;;8.45;4.05;;;;;;;-0.29;74.84;94260.94;5083185;28;20058;-85
2024/01/09 07:02:12;;;;;;;10.15;3.38;;;;;;;-0.58;74.30;94262.00;5082068;28;20013;-86
2024/01/09 07:04:38;;;;;;;6.50;3.30;;;;;;;-0.56;75.21;94262.56;5083052;28;20223;-85
2024/01/09 07:07:04;;;;;;;7.35;3.35;;;;;;;-0.46;75.18;94265.38;5081097;28;20028;-87
2024/01/09 07:09:29;;;;;;;5.90;3.22;;;;;;;-0.40;74.61;94272.28;5083056;28;20059;-87
2024/01/09 07:11:55;;;;;;;6.78;3.22;;;;;;;-0.40;74.79;94269.69;5089884;28;20056;-88
2024/01/09 07:14:20;;;;;;;6.05;3.63;;;;;;;-0.42;74.49;94271.72;5086569;28;20326;-89
2024/01/09 07:16:45;;;;;;;11.20;3.97;;;;;;;-0.45;74.60;94270.38;5082398;28;20322;-89
2024/01/09 07:19:11;;;;;;;8.30;3.47;;;;;;;-0.54;74.28;94276.22;5083462;28;20073;-84
2024/01/09 07:21:37;;;;;;;7.45;3.83;;;;;;;-0.64;74.56;94282.06;5082682;28;20062;-81
2024/01/09 07:24:02;;;;;;;14.32;4.78;;;;;;;-0.63;75.18;94288.91;5098455;28;20029;-86
2024/01/09 07:26:28;;;;;;;11.27;5.25;;;;;;;-0.64;75.58;94290.69;5083083;28;20055;-82
2024/01/09 07:28:53;;;;;;;11.93;5.40;;;;;;;-0.93;75.85;94287.25;5082335;28;20276;-82
2024/01/09 07:31:19;;;;;;;13.02;5.60;;;;;;;-0.92;76.31;94286.19;5082396;28;20046;-83
2024/01/09 07:33:44;;;;;;;9.50;4.85;;;;;;;-0.91;76.48;94297.50;5081213;28;20027;-84
2024/01/09 07:36:10;;;;;;;12.05;5.30;;;;;;;-1.17;76.71;94302.16;5082679;28;20036;-83
2024/01/09 07:38:35;;;;;;;10.25;4.65;;;;;;;-1.38;77.71;94302.75;5082840;28;20029;-83
2024/01/09 07:41:02;;;;;;;8.45;4.43;;;;;;;-1.31;77.95;94301.59;5081355;28;20072;-85
2024/01/09 07:43:28;;;;;;;9.30;4.22;;;;;;;-1.25;78.04;94287.63;5081888;28;20032;-86
2024/01/09 07:45:54;;;;;;;7.85;3.88;;;;;;;-1.19;77.31;94293.75;5082072;28;20111;-86
2024/01/09 07:48:19;;;;;;;9.60;4.25;;;;;;;-1.12;77.44;94306.72;5083303;28;20275;-82
2024/01/09 07:50:45;;;;;;;10.90;4.70;;;;;;;-1.26;76.73;94298.34;5082399;28;20031;-79
2024/01/09 07:53:10;;;;;;;10.25;4.55;;;;;;;-1.27;76.86;94300.13;5082137;28;20204;-74
2024/01/09 07:55:36;;;;;;;11.98;4.38;;;;;;;-1.22;76.72;94302.88;5082333;28;20343;-78
2024/01/09 07:58:01;;;;;;;8.70;4.25;;;;;;;-1.23;76.11;94303.09;5082331;28;20021;-77
2024/01/09 08:00:27;;;;;;;8.25;3.97;;;;;;;-1.27;76.10;94304.56;5082296;28;20032;-77
2024/01/09 08:02:52;;;;;;;10.35;4.55;;;;;;;-1.28;76.50;94313.44;5082313;28;20016;-77
2024/01/09 08:05:18;;;;;;;10.30;4.43;;;;;;;-1.35;76.72;94320.59;5082006;28;20092;-76
2024/01/09 08:07:43;;;;;;;13.25;4.78;;;;;;;-1.46;76.70;94317.75;5081913;28;20021;-75
2024/01/09 08:10:09;;;;;;;14.95;5.72;;;;;;;-1.63;78.17;94325.47;5081099;28;20249;-75
2024/01/09 08:12:35;;;;;;;11.60;5.32;;;;;;;-1.54;78.90;94331.16;5082116;28;20235;-75
2024/01/09 08:15:01;;;;;;;25.52;6.13;;;;;;;-1.37;78.90;94325.25;5082003;28;20088;-75
2024/01/09 08:17:26;;;;;;;9.15;4.95;;;;;;;-1.31;78.49;94321.75;5082230;28;20029;-77
2024/01/09 08:19:52;;;;;;;7.60;4.75;;;;;;;-1.25;78.13;94336.53;5082733;28;20025;-76
2024/01/09 08:22:18;;;;;;;10.32;4.95;;;;;;;-1.22;76.68;94333.47;5085648;28;20023;-75
2024/01/09 08:24:43;;;;;;;10.85;4.65;;;;;;;-1.23;74.95;94335.25;5085641;28;20069;-76
2024/01/09 08:27:09;;;;;;;9.35;5.63;;;;;;;-1.26;74.89;94333.13;5085936;28;20048;-76
2024/01/09 08:29:34;;;;;;;8.63;4.80;;;;;;;-1.33;75.99;94352.56;5085699;28;20024;-74
2024/01/09 08:32:00;;;;;;;11.32;4.43;;;;;;;-1.30;75.56;94341.66;5085154;28;20330;-74
2024/01/09 08:34:26;;;;;;;11.05;4.53;;;;;;;-1.28;75.25;94350.06;5085373;28;20039;-74
2024/01/09 08:36:51;;;;;;;8.95;4.90;;;;;;;-1.34;75.77;94366.63;5085189;28;20130;-75
2024/01/09 08:39:17;;;;;;;11.50;4.85;;;;;;;-1.31;76.03;94366.19;5085319;28;20025;-75
2024/01/09 08:41:42;;;;;;;8.02;4.80;;;;;;;-1.25;76.07;94358.22;5084034;28;20070;-74
2024/01/09 08:44:08;;;;;;;16.50;4.53;;;;;;;-1.11;76.32;94358.03;5085319;28;20024;-74
2024/01/09 08:46:34;;;;;;;8.15;4.60;;;;;;;-1.04;75.11;94356.06;5085235;28;20027;-74
2024/01/09 08:49:00;;;;;;;10.15;5.38;;;;;;;-1.01;74.86;94350.41;5084168;28;20039;-74
2024/01/09 08:51:27;;;;;;;6.85;3.63;;;;;;;-1.02;73.76;94352.22;5085204;28;20027;-74
2024/01/09 08:53:54;;;;;;;10.25;4.40;;;;;;;-1.01;73.70;94351.19;5084982;28;20302;-73
2024/01/09 08:56:20;;;;;;;8.60;4.78;;;;;;;-1.24;72.86;94340.75;5085096;28;20333;-74
2024/01/09 08:58:45;;;;;;;16.33;5.20;;;;;;;-1.33;73.68;94342.09;5084945;28;20029;-76
2024/01/09 09:01:11;;;;;;;8.07;4.47;;;;;;;-1.32;73.96;94349.72;5084898;28;20088;-74
2024/01/09 09:03:36;;;;;;;8.10;3.95;;;;;;;-1.22;74.20;94349.16;5084872;28;20311;-75
2024/01/09 09:06:02;;;;;;;12.65;5.00;;;;;;;-1.17;73.95;94364.97;5084516;28;20097;-75
2024/01/09 09:08:27;;;;;;;11.10;3.38;;;;;;;-1.10;73.32;94363.03;5084651;28;20032;-74
2024/01/09 09:10:53;;;;;;;7.20;4.00;;;;;;;-1.09;72.83;94369.06;5084742;28;20115;-76
2024/01/09 09:13:18;;;;;;;8.15;4.57;;;;;;;-1.17;73.99;94367.56;5084917;28;20077;-76
2024/01/09 09:15:44;;;;;;;9.50;4.82;;;;;;;-1.08;74.63;94375.88;5084532;28;20035;-75
2024/01/09 09:18:10;;;;;;;7.68;3.83;;;;;;;-0.96;74.75;94373.25;5084465;28;20059;-75
2024/01/09 09:20:36;;;;;;;7.45;3.58;;;;;;;-0.88;74.84;94365.06;5084876;28;20048;-75
2024/01/09 09:23:01;;;;;;;8.38;4.05;;;;;;;-0.84;73.78;94359.13;5084836;28;20032;-76
2024/01/09 09:25:27;;;;;;;8.90;4.20;;;;;;;-0.81;72.97;94363.91;5084488;28;20032;-76
2024/01/09 09:27:53;;;;;;;8.80;3.55;;;;;;;-0.87;71.19;94371.91;5082888;28;20104;-75
2024/01/09 09:30:18;;;;;;;7.50;4.05;;;;;;;-0.93;71.28;94376.22;5083882;28;20028;-76
2024/01/09 09:32:44;;;;;;;11.40;3.38;;;;;;;-0.99;70.83;94374.50;5083766;28;20012;-75
2024/01/09 09:35:09;;;;;;;7.93;3.85;;;;;;;-1.10;70.95;94363.03;5083781;28;20024;-77
2024/01/09 09:37:35;;;;;;;6.88;3.25;;;;;;;-1.16;71.10;94361.34;5084523;28;20215;-77
2024/01/09 09:40:01;;;;;;;9.95;3.65;;;;;;;-1.20;70.43;94362.81;5083988;28;20040;-76
2024/01/09 09:42:30;;;;;;;6.57;3.72;;;;;;;-1.30;71.59;94373.81;5082977;28;20016;-77
2024/01/09 09:45:00;;;;;;;7.63;4.32;;;;;;;-1.29;71.30;94366.78;5083886;28;20066;-77
2024/01/09 09:47:26;;;;;;;8.10;3.20;;;;;;;-1.31;71.73;94364.38;5083777;28;20095;-77
2024/01/09 09:49:53;;;;;;;7.50;4.15;;;;;;;-1.34;72.17;94369.25;5083593;28;20058;-77
2024/01/09 09:52:21;;;;;;;7.43;3.95;;;;;;;-1.33;72.29;94368.25;5083948;28;20090;-77
2024/01/09 09:54:48;;;;;;;8.60;3.38;;;;;;;-1.37;72.28;94372.34;5083807;28;20028;-77
2024/01/09 09:57:14;;;;;;;8.90;4.25;;;;;;;-1.47;71.51;94360.59;5083503;28;20027;-77
2024/01/09 09:59:39;;;;;;;5.80;3.25;;;;;;;-1.50;71.31;94357.66;5083696;28;20241;-77
2024/01/09 10:02:07;;;;;;;6.35;3.33;;;;;;;-1.55;71.59;94365.38;5083896;28;20025;-76
2024/01/09 10:04:48;;;;;;;5.32;2.85;;;;;;;-1.50;71.50;94361.06;5082100;28;20128;-76
2024/01/09 10:07:20;;;;;;;13.85;3.10;;;;;;;-1.51;71.57;94356.84;5083493;28;20027;-77
2024/01/09 10:09:49;;;;;;;7.00;3.55;;;;;;;-1.52;71.08;94357.88;5083429;28;20025;-77
2024/01/09 10:12:15;;;;;;;4.78;2.45;;;;;;;-1.55;70.74;94360.13;5083117;28;20040;-76
2024/01/09 10:15:12;;;;;;;6.35;3.00;;;;;;;-1.54;69.27;94362.53;5083384;28;20055;-77
2024/01/09 10:17:41;;;;;;;8.23;3.67;;;;;;;-1.65;71.34;94358.06;5083580;28;20013;-77
2024/01/09 10:20:09;;;;;;;8.00;3.30;;;;;;;-1.72;70.85;94357.38;5083654;28;20012;-77
2024/01/09 10:22:37;;;;;;;7.20;3.05;;;;;;;-1.74;70.20;94362.03;5083091;28;20012;-77
2024/01/09 10:25:07;;;;;;;8.52;3.50;;;;;;;-1.92;69.99;94365.50;5082844;28;20092;-77
2024/01/09 10:27:36;;;;;;;10.48;3.75;;;;;;;-1.89;71.19;94376.31;5083138;28;20032;-76
2024/01/09 10:30:01;;;;;;;8.45;3.88;;;;;;;-1.90;70.68;94376.53;5083134;28;20055;-76
2024/01/09 10:32:27;;;;;;;7.53;3.88;;;;;;;-2.01;70.55;94378.09;5083053;28;20180;-78
2024/01/09 10:34:52;;;;;;;8.45;3.58;;;;;;;-2.01;71.00;94385.94;5081726;28;20234;-76
2024/01/09 10:37:18;;;;;;;8.05;3.88;;;;;;;-2.03;70.00;94388.75;5081107;28;20061;-77
2024/01/09 10:39:48;;;;;;;14.88;4.70;;;;;;;-2.19;71.79;94384.16;5079508;28;20219;-76
2024/01/09 10:42:13;;;;;;;12.15;4.78;;;;;;;-2.18;71.24;94392.78;5079651;28;20016;-76
2024/01/09 10:44:42;;;;;;;12.57;4.97;;;;;;;-2.29;71.83;94399.53;5081038;28;20016;-77
2024/01/09 10:47:13;;;;;;;9.55;4.43;;;;;;;-2.30;71.13;94396.16;5080981;28;20304;-77
2024/01/09 10:49:43;;;;;;;9.10;4.78;;;;;;;-2.33;72.13;94414.84;5082346;28;20029;-76
2024/01/09 10:52:16;;;;;;;9.77;4.80;;;;;;;-2.46;73.38;94407.19;5082153;28;20257;-77
2024/01/09 10:54:45;;;;;;;13.15;5.07;;;;;;;-2.44;73.42;94413.78;5079997;28;20357;-76
2024/01/09 10:57:12;;;;;;;11.45;6.18;;;;;;;-2.48;73.35;94424.88;5080230;28;20035;-76
2024/01/09 10:59:45;;;;;;;14.07;5.47;;;;;;;-2.51;72.79;94425.31;5081652;28;20028;-77
2024/01/09 11:02:25;;;;;;;11.65;5.80;;;;;;;-2.51;73.05;94422.69;5081661;28;20018;-77
2024/01/09 11:04:51;;;;;;;10.90;5.05;;;;;;;-2.58;73.43;94432.41;5082090;28;20488;-77
2024/01/09 11:07:17;;;;;;;16.38;5.82;;;;;;;-2.66;73.26;94443.94;5082231;28;20051;-77
2024/01/09 11:09:44;;;;;;;11.48;5.30;;;;;;;-2.77;73.79;94437.59;5082125;28;20021;-77
2024/01/09 11:12:24;;;;;;;15.45;5.90;;;;;;;-2.71;74.47;94449.00;5081271;28;20216;-77
2024/01/09 11:15:11;;;;;;;9.30;5.40;;;;;;;-2.75;74.49;94445.22;5082539;28;20092;-77
2024/01/09 11:17:39;;;;;;;13.00;5.55;;;;;;;-2.59;74.50;94452.47;5075287;28;20051;-77
2024/01/09 11:20:06;;;;;;;12.70;6.25;;;;;;;-2.50;73.05;94450.41;5082326;28;20020;-77
2024/01/09 11:22:38;;;;;;;12.25;5.07;;;;;;;-2.46;72.34;94448.94;5082455;28;20287;-77
2024/01/09 11:25:09;;;;;;;14.10;6.03;;;;;;;-2.48;72.63;94446.56;5082203;28;20031;-77